sensor_id;sensor_type;location;lat;lon;timestamp;P1;durP1;ratioP1;P2;durP2;ratioP2
61590;SDS011;57639;52.410;-1.966;2022-09-21T00:00:51;16.15;;;10.38;;
61590;SDS011;57639;52.410;-1.966;2022-09-21T00:03:58;16.30;;;10.00;;
61590;SDS011;57639;52.410;-1.966;2022-09-21T00:07:07;14.82;;;10.35;;
61590;SDS011;57639;52.410;-1.966;2022-09-21T00:10:13;15.30;;;10.25;;
61590;SDS011;57639;52.410;-1.966;2022-09-21T00:13:22;13.83;;;10.20;;
61590;SDS011;57639;52.410;-1.966;2022-09-21T00:16:32;14.23;;;10.10;;
61590;SDS011;57639;52.410;-1.966;2022-09-21T00:19:40;15.48;;;10.00;;
61590;SDS011;57639;52.410;-1.966;2022-09-21T00:22:45;13.63;;;9.35;;
61590;SDS011;57639;52.410;-1.966;2022-09-21T00:26:02;12.85;;;9.15;;
61590;SDS011;57639;52.410;-1.966;2022-09-21T00:29:09;13.48;;;9.80;;
61590;SDS011;57639;52.410;-1.966;2022-09-21T00:32:20;12.27;;;8.73;;
61590;SDS011;57639;52.410;-1.966;2022-09-21T00:35:26;14.98;;;9.85;;
61590;SDS011;57639;52.410;-1.966;2022-09-21T00:38:34;15.27;;;9.52;;
61590;SDS011;57639;52.410;-1.966;2022-09-21T00:41:40;12.48;;;8.50;;
61590;SDS011;57639;52.410;-1.966;2022-09-21T00:44:48;12.80;;;9.02;;
61590;SDS011;57639;52.410;-1.966;2022-09-21T00:47:57;12.75;;;8.55;;
61590;SDS011;57639;52.410;-1.966;2022-09-21T00:51:05;12.98;;;8.80;;
61590;SDS011;57639;52.410;-1.966;2022-09-21T00:54:13;11.80;;;8.07;;
61590;SDS011;57639;52.410;-1.966;2022-09-21T00:57:26;11.02;;;8.07;;
61590;SDS011;57639;52.410;-1.966;2022-09-21T01:00:36;12.77;;;7.60;;
61590;SDS011;57639;52.410;-1.966;2022-09-21T01:03:47;11.52;;;8.52;;
61590;SDS011;57639;52.410;-1.966;2022-09-21T01:06:54;12.40;;;8.13;;
61590;SDS011;57639;52.410;-1.966;2022-09-21T01:10:05;13.45;;;8.60;;
61590;SDS011;57639;52.410;-1.966;2022-09-21T01:13:17;10.90;;;7.30;;
61590;SDS011;57639;52.410;-1.966;2022-09-21T01:16:34;11.38;;;7.95;;
61590;SDS011;57639;52.410;-1.966;2022-09-21T01:19:55;11.10;;;7.78;;
61590;SDS011;57639;52.410;-1.966;2022-09-21T01:23:41;9.15;;;6.75;;
61590;SDS011;57639;52.410;-1.966;2022-09-21T01:30:39;10.90;;;7.65;;
61590;SDS011;57639;52.410;-1.966;2022-09-21T01:33:50;8.93;;;6.70;;
61590;SDS011;57639;52.410;-1.966;2022-09-21T01:37:02;10.88;;;7.38;;
61590;SDS011;57639;52.410;-1.966;2022-09-21T01:40:13;9.73;;;7.05;;
61590;SDS011;57639;52.410;-1.966;2022-09-21T01:43:27;9.35;;;6.32;;
61590;SDS011;57639;52.410;-1.966;2022-09-21T01:46:41;8.18;;;6.28;;
61590;SDS011;57639;52.410;-1.966;2022-09-21T01:49:53;9.85;;;6.82;;
61590;SDS011;57639;52.410;-1.966;2022-09-21T01:53:02;9.90;;;6.63;;
61590;SDS011;57639;52.410;-1.966;2022-09-21T01:56:14;9.65;;;6.70;;
61590;SDS011;57639;52.410;-1.966;2022-09-21T01:59:24;9.35;;;6.57;;
61590;SDS011;57639;52.410;-1.966;2022-09-21T02:02:42;8.98;;;6.78;;
61590;SDS011;57639;52.410;-1.966;2022-09-21T02:05:52;7.95;;;6.30;;
61590;SDS011;57639;52.410;-1.966;2022-09-21T02:09:00;8.50;;;6.10;;
61590;SDS011;57639;52.410;-1.966;2022-09-21T02:12:06;8.32;;;6.05;;
61590;SDS011;57639;52.410;-1.966;2022-09-21T02:15:21;9.23;;;6.32;;
61590;SDS011;57639;52.410;-1.966;2022-09-21T02:18:41;7.95;;;6.18;;
61590;SDS011;57639;52.410;-1.966;2022-09-21T02:22:01;8.88;;;6.32;;
61590;SDS011;57639;52.410;-1.966;2022-09-21T02:25:10;7.95;;;5.78;;
61590;SDS011;57639;52.410;-1.966;2022-09-21T02:28:24;8.18;;;5.68;;
61590;SDS011;57639;52.410;-1.966;2022-09-21T02:31:39;9.45;;;5.95;;
61590;SDS011;57639;52.410;-1.966;2022-09-21T02:35:00;8.55;;;5.97;;
61590;SDS011;57639;52.410;-1.966;2022-09-21T02:38:11;10.13;;;5.70;;
61590;SDS011;57639;52.410;-1.966;2022-09-21T02:41:27;6.18;;;4.95;;
61590;SDS011;57639;52.410;-1.966;2022-09-21T02:44:35;6.70;;;5.15;;
61590;SDS011;57639;52.410;-1.966;2022-09-21T02:47:47;8.13;;;5.47;;
61590;SDS011;57639;52.410;-1.966;2022-09-21T02:51:01;7.55;;;5.07;;
61590;SDS011;57639;52.410;-1.966;2022-09-21T02:54:13;7.30;;;4.90;;
61590;SDS011;57639;52.410;-1.966;2022-09-21T02:57:22;7.15;;;5.30;;
61590;SDS011;57639;52.410;-1.966;2022-09-21T03:00:31;5.85;;;4.53;;
61590;SDS011;57639;52.410;-1.966;2022-09-21T03:03:39;8.15;;;5.60;;
61590;SDS011;57639;52.410;-1.966;2022-09-21T03:06:50;6.45;;;4.85;;
61590;SDS011;57639;52.410;-1.966;2022-09-21T03:09:57;8.40;;;5.03;;
61590;SDS011;57639;52.410;-1.966;2022-09-21T03:13:05;6.72;;;5.03;;
61590;SDS011;57639;52.410;-1.966;2022-09-21T03:16:12;6.88;;;4.97;;
61590;SDS011;57639;52.410;-1.966;2022-09-21T03:19:20;6.20;;;4.70;;
61590;SDS011;57639;52.410;-1.966;2022-09-21T03:22:29;8.52;;;5.20;;
61590;SDS011;57639;52.410;-1.966;2022-09-21T03:25:36;6.22;;;4.70;;
61590;SDS011;57639;52.410;-1.966;2022-09-21T03:28:42;6.40;;;4.97;;
61590;SDS011;57639;52.410;-1.966;2022-09-21T03:31:50;7.13;;;4.72;;
61590;SDS011;57639;52.410;-1.966;2022-09-21T03:34:56;8.07;;;5.00;;
61590;SDS011;57639;52.410;-1.966;2022-09-21T03:38:07;6.53;;;4.60;;
61590;SDS011;57639;52.410;-1.966;2022-09-21T03:41:13;5.65;;;4.40;;
61590;SDS011;57639;52.410;-1.966;2022-09-21T03:44:21;6.30;;;4.53;;
61590;SDS011;57639;52.410;-1.966;2022-09-21T03:47:27;7.75;;;5.07;;
61590;SDS011;57639;52.410;-1.966;2022-09-21T03:50:35;7.10;;;4.65;;
61590;SDS011;57639;52.410;-1.966;2022-09-21T03:53:43;6.43;;;4.75;;
61590;SDS011;57639;52.410;-1.966;2022-09-21T03:56:51;5.20;;;4.32;;
61590;SDS011;57639;52.410;-1.966;2022-09-21T03:59:56;5.70;;;4.40;;
61590;SDS011;57639;52.410;-1.966;2022-09-21T04:03:05;6.07;;;4.60;;
61590;SDS011;57639;52.410;-1.966;2022-09-21T04:06:13;6.20;;;4.75;;
61590;SDS011;57639;52.410;-1.966;2022-09-21T04:09:23;6.97;;;5.03;;
61590;SDS011;57639;52.410;-1.966;2022-09-21T04:12:29;7.05;;;4.43;;
61590;SDS011;57639;52.410;-1.966;2022-09-21T04:15:37;5.65;;;4.43;;
61590;SDS011;57639;52.410;-1.966;2022-09-21T04:18:43;5.65;;;4.20;;
61590;SDS011;57639;52.410;-1.966;2022-09-21T04:21:53;5.78;;;4.25;;
61590;SDS011;57639;52.410;-1.966;2022-09-21T04:25:04;6.28;;;4.07;;
61590;SDS011;57639;52.410;-1.966;2022-09-21T04:28:12;4.90;;;4.00;;
61590;SDS011;57639;52.410;-1.966;2022-09-21T04:31:18;5.95;;;4.40;;
61590;SDS011;57639;52.410;-1.966;2022-09-21T04:34:26;6.03;;;4.22;;
61590;SDS011;57639;52.410;-1.966;2022-09-21T04:37:33;5.68;;;4.40;;
61590;SDS011;57639;52.410;-1.966;2022-09-21T04:40:46;6.80;;;4.40;;
61590;SDS011;57639;52.410;-1.966;2022-09-21T04:43:58;5.38;;;3.97;;
61590;SDS011;57639;52.410;-1.966;2022-09-21T04:47:07;6.13;;;4.10;;
61590;SDS011;57639;52.410;-1.966;2022-09-21T04:50:12;5.93;;;4.20;;
61590;SDS011;57639;52.410;-1.966;2022-09-21T04:53:19;4.72;;;3.70;;
61590;SDS011;57639;52.410;-1.966;2022-09-21T04:56:28;4.78;;;3.80;;
61590;SDS011;57639;52.410;-1.966;2022-09-21T04:59:36;4.40;;;3.65;;
61590;SDS011;57639;52.410;-1.966;2022-09-21T05:02:41;4.97;;;4.07;;
61590;SDS011;57639;52.410;-1.966;2022-09-21T05:05:54;6.00;;;4.37;;
61590;SDS011;57639;52.410;-1.966;2022-09-21T05:09:04;5.82;;;4.10;;
61590;SDS011;57639;52.410;-1.966;2022-09-21T05:12:36;5.82;;;3.80;;
61590;SDS011;57639;52.410;-1.966;2022-09-21T05:15:54;5.88;;;3.97;;
61590;SDS011;57639;52.410;-1.966;2022-09-21T05:19:02;5.03;;;3.72;;
61590;SDS011;57639;52.410;-1.966;2022-09-21T05:22:08;5.78;;;4.15;;
61590;SDS011;57639;52.410;-1.966;2022-09-21T05:25:18;5.00;;;3.70;;
61590;SDS011;57639;52.410;-1.966;2022-09-21T05:28:27;4.85;;;3.63;;
61590;SDS011;57639;52.410;-1.966;2022-09-21T05:31:42;5.18;;;3.85;;
61590;SDS011;57639;52.410;-1.966;2022-09-21T05:34:54;5.00;;;3.95;;
61590;SDS011;57639;52.410;-1.966;2022-09-21T05:38:12;4.13;;;3.60;;
61590;SDS011;57639;52.410;-1.966;2022-09-21T05:41:22;5.20;;;4.20;;
61590;SDS011;57639;52.410;-1.966;2022-09-21T05:44:34;6.00;;;4.07;;
61590;SDS011;57639;52.410;-1.966;2022-09-21T05:47:43;5.57;;;3.90;;
61590;SDS011;57639;52.410;-1.966;2022-09-21T05:51:00;5.07;;;3.72;;
61590;SDS011;57639;52.410;-1.966;2022-09-21T05:54:12;5.80;;;3.63;;
61590;SDS011;57639;52.410;-1.966;2022-09-21T05:57:27;5.20;;;3.78;;
61590;SDS011;57639;52.410;-1.966;2022-09-21T06:00:46;5.25;;;3.83;;
61590;SDS011;57639;52.410;-1.966;2022-09-21T06:04:04;5.55;;;3.72;;
61590;SDS011;57639;52.410;-1.966;2022-09-21T06:12:14;5.00;;;3.63;;
61590;SDS011;57639;52.410;-1.966;2022-09-21T06:15:24;4.85;;;3.63;;
61590;SDS011;57639;52.410;-1.966;2022-09-21T06:18:35;5.10;;;3.42;;
61590;SDS011;57639;52.410;-1.966;2022-09-21T06:21:47;5.30;;;3.53;;
61590;SDS011;57639;52.410;-1.966;2022-09-21T06:24:53;5.03;;;3.30;;
61590;SDS011;57639;52.410;-1.966;2022-09-21T06:28:02;4.70;;;3.40;;
61590;SDS011;57639;52.410;-1.966;2022-09-21T06:31:08;4.70;;;3.42;;
61590;SDS011;57639;52.410;-1.966;2022-09-21T06:34:26;4.57;;;3.40;;
61590;SDS011;57639;52.410;-1.966;2022-09-21T06:37:33;4.38;;;3.40;;
61590;SDS011;57639;52.410;-1.966;2022-09-21T06:40:42;4.80;;;3.30;;
61590;SDS011;57639;52.410;-1.966;2022-09-21T06:43:51;4.82;;;3.55;;
61590;SDS011;57639;52.410;-1.966;2022-09-21T06:47:00;4.88;;;3.30;;
61590;SDS011;57639;52.410;-1.966;2022-09-21T06:50:09;5.53;;;3.28;;
61590;SDS011;57639;52.410;-1.966;2022-09-21T06:53:18;4.32;;;3.53;;
61590;SDS011;57639;52.410;-1.966;2022-09-21T06:56:23;8.27;;;3.63;;
61590;SDS011;57639;52.410;-1.966;2022-09-21T06:59:31;4.88;;;3.35;;
61590;SDS011;57639;52.410;-1.966;2022-09-21T07:02:41;5.90;;;3.63;;
61590;SDS011;57639;52.410;-1.966;2022-09-21T07:05:52;5.28;;;3.13;;
61590;SDS011;57639;52.410;-1.966;2022-09-21T07:08:58;5.22;;;3.65;;
61590;SDS011;57639;52.410;-1.966;2022-09-21T07:12:26;10.15;;;3.90;;
61590;SDS011;57639;52.410;-1.966;2022-09-21T07:15:37;6.07;;;3.13;;
61590;SDS011;57639;52.410;-1.966;2022-09-21T07:18:43;4.75;;;3.38;;
61590;SDS011;57639;52.410;-1.966;2022-09-21T07:21:58;5.43;;;3.42;;
61590;SDS011;57639;52.410;-1.966;2022-09-21T07:25:09;6.20;;;3.80;;
61590;SDS011;57639;52.410;-1.966;2022-09-21T07:28:20;5.78;;;3.38;;
61590;SDS011;57639;52.410;-1.966;2022-09-21T07:31:29;4.07;;;3.13;;
61590;SDS011;57639;52.410;-1.966;2022-09-21T07:34:40;5.75;;;3.38;;
61590;SDS011;57639;52.410;-1.966;2022-09-21T07:37:48;4.78;;;3.30;;
61590;SDS011;57639;52.410;-1.966;2022-09-21T07:40:55;4.03;;;3.03;;
61590;SDS011;57639;52.410;-1.966;2022-09-21T07:44:01;5.97;;;3.20;;
61590;SDS011;57639;52.410;-1.966;2022-09-21T07:47:09;4.20;;;3.13;;
61590;SDS011;57639;52.410;-1.966;2022-09-21T07:50:22;4.47;;;2.97;;
61590;SDS011;57639;52.410;-1.966;2022-09-21T07:56:53;4.32;;;3.20;;
61590;SDS011;57639;52.410;-1.966;2022-09-21T08:00:18;5.57;;;3.05;;
61590;SDS011;57639;52.410;-1.966;2022-09-21T08:03:27;4.95;;;2.97;;
61590;SDS011;57639;52.410;-1.966;2022-09-21T08:09:49;7.03;;;3.38;;
61590;SDS011;57639;52.410;-1.966;2022-09-21T08:12:57;5.45;;;3.10;;
61590;SDS011;57639;52.410;-1.966;2022-09-21T08:16:05;6.15;;;2.85;;
61590;SDS011;57639;52.410;-1.966;2022-09-21T08:19:25;4.38;;;2.72;;
61590;SDS011;57639;52.410;-1.966;2022-09-21T08:22:31;4.25;;;3.15;;
61590;SDS011;57639;52.410;-1.966;2022-09-21T08:25:56;5.45;;;3.17;;
61590;SDS011;57639;52.410;-1.966;2022-09-21T08:29:02;3.88;;;2.80;;
61590;SDS011;57639;52.410;-1.966;2022-09-21T08:32:16;5.85;;;2.90;;
61590;SDS011;57639;52.410;-1.966;2022-09-21T08:35:42;4.55;;;2.90;;
61590;SDS011;57639;52.410;-1.966;2022-09-21T08:38:57;4.65;;;2.97;;
61590;SDS011;57639;52.410;-1.966;2022-09-21T08:42:17;5.80;;;2.92;;
61590;SDS011;57639;52.410;-1.966;2022-09-21T08:45:43;5.55;;;2.97;;
61590;SDS011;57639;52.410;-1.966;2022-09-21T08:48:56;4.70;;;2.92;;
61590;SDS011;57639;52.410;-1.966;2022-09-21T08:52:16;4.38;;;2.83;;
61590;SDS011;57639;52.410;-1.966;2022-09-21T08:55:25;5.60;;;2.75;;
61590;SDS011;57639;52.410;-1.966;2022-09-21T08:58:38;4.80;;;3.00;;
61590;SDS011;57639;52.410;-1.966;2022-09-21T09:01:50;4.38;;;2.97;;
61590;SDS011;57639;52.410;-1.966;2022-09-21T09:05:11;4.40;;;2.88;;
61590;SDS011;57639;52.410;-1.966;2022-09-21T09:08:50;4.05;;;2.85;;
61590;SDS011;57639;52.410;-1.966;2022-09-21T09:12:21;4.45;;;2.95;;
61590;SDS011;57639;52.410;-1.966;2022-09-21T09:15:54;5.55;;;3.00;;
61590;SDS011;57639;52.410;-1.966;2022-09-21T09:19:26;5.13;;;3.25;;
61590;SDS011;57639;52.410;-1.966;2022-09-21T09:22:42;3.90;;;2.53;;
61590;SDS011;57639;52.410;-1.966;2022-09-21T09:25:55;4.25;;;2.60;;
61590;SDS011;57639;52.410;-1.966;2022-09-21T09:29:07;4.53;;;2.70;;
61590;SDS011;57639;52.410;-1.966;2022-09-21T09:32:26;3.78;;;2.80;;
61590;SDS011;57639;52.410;-1.966;2022-09-21T09:35:37;3.33;;;2.67;;
61590;SDS011;57639;52.410;-1.966;2022-09-21T09:38:53;4.88;;;2.90;;
61590;SDS011;57639;52.410;-1.966;2022-09-21T09:42:17;4.13;;;2.85;;
61590;SDS011;57639;52.410;-1.966;2022-09-21T09:45:37;5.40;;;2.72;;
61590;SDS011;57639;52.410;-1.966;2022-09-21T09:49:09;5.53;;;2.88;;
61590;SDS011;57639;52.410;-1.966;2022-09-21T09:52:24;3.40;;;2.63;;
61590;SDS011;57639;52.410;-1.966;2022-09-21T09:55:34;5.70;;;2.70;;
61590;SDS011;57639;52.410;-1.966;2022-09-21T09:58:45;4.03;;;2.63;;
61590;SDS011;57639;52.410;-1.966;2022-09-21T10:02:03;4.82;;;2.90;;
61590;SDS011;57639;52.410;-1.966;2022-09-21T10:05:18;3.55;;;2.80;;
61590;SDS011;57639;52.410;-1.966;2022-09-21T10:08:29;4.95;;;2.80;;
61590;SDS011;57639;52.410;-1.966;2022-09-21T10:11:46;3.85;;;2.65;;
61590;SDS011;57639;52.410;-1.966;2022-09-21T10:14:52;5.25;;;2.70;;
61590;SDS011;57639;52.410;-1.966;2022-09-21T10:18:05;5.85;;;2.50;;
61590;SDS011;57639;52.410;-1.966;2022-09-21T10:21:18;5.13;;;2.78;;
61590;SDS011;57639;52.410;-1.966;2022-09-21T10:24:28;5.90;;;2.70;;
61590;SDS011;57639;52.410;-1.966;2022-09-21T10:27:37;5.28;;;2.50;;
61590;SDS011;57639;52.410;-1.966;2022-09-21T10:30:49;3.78;;;2.50;;
61590;SDS011;57639;52.410;-1.966;2022-09-21T10:34:13;4.95;;;2.53;;
61590;SDS011;57639;52.410;-1.966;2022-09-21T10:37:25;4.05;;;2.70;;
61590;SDS011;57639;52.410;-1.966;2022-09-21T10:40:35;3.40;;;2.67;;
61590;SDS011;57639;52.410;-1.966;2022-09-21T10:46:51;4.38;;;2.35;;
61590;SDS011;57639;52.410;-1.966;2022-09-21T10:49:59;4.75;;;2.60;;
61590;SDS011;57639;52.410;-1.966;2022-09-21T10:53:16;3.63;;;2.42;;
61590;SDS011;57639;52.410;-1.966;2022-09-21T10:56:31;4.63;;;2.75;;
61590;SDS011;57639;52.410;-1.966;2022-09-21T10:59:36;3.92;;;2.40;;
61590;SDS011;57639;52.410;-1.966;2022-09-21T11:02:44;4.97;;;2.50;;
61590;SDS011;57639;52.410;-1.966;2022-09-21T11:05:51;4.15;;;2.55;;
61590;SDS011;57639;52.410;-1.966;2022-09-21T11:09:04;3.83;;;2.63;;
61590;SDS011;57639;52.410;-1.966;2022-09-21T11:15:54;3.97;;;2.50;;
61590;SDS011;57639;52.410;-1.966;2022-09-21T11:19:16;4.30;;;2.60;;
61590;SDS011;57639;52.410;-1.966;2022-09-21T11:22:34;5.22;;;2.50;;
61590;SDS011;57639;52.410;-1.966;2022-09-21T11:25:49;4.05;;;2.92;;
61590;SDS011;57639;52.410;-1.966;2022-09-21T11:29:06;3.53;;;2.40;;
61590;SDS011;57639;52.410;-1.966;2022-09-21T11:35:47;3.60;;;2.38;;
61590;SDS011;57639;52.410;-1.966;2022-09-21T11:39:09;3.90;;;2.88;;
61590;SDS011;57639;52.410;-1.966;2022-09-21T11:42:47;3.72;;;2.80;;
61590;SDS011;57639;52.410;-1.966;2022-09-21T11:46:16;3.05;;;2.22;;
61590;SDS011;57639;52.410;-1.966;2022-09-21T11:49:33;4.38;;;2.60;;
61590;SDS011;57639;52.410;-1.966;2022-09-21T11:53:24;4.40;;;2.45;;
61590;SDS011;57639;52.410;-1.966;2022-09-21T11:56:42;3.10;;;2.30;;
61590;SDS011;57639;52.410;-1.966;2022-09-21T12:00:00;3.60;;;2.15;;
61590;SDS011;57639;52.410;-1.966;2022-09-21T12:03:26;3.63;;;2.50;;
61590;SDS011;57639;52.410;-1.966;2022-09-21T12:07:13;3.95;;;2.30;;
61590;SDS011;57639;52.410;-1.966;2022-09-21T12:10:38;3.08;;;2.15;;
61590;SDS011;57639;52.410;-1.966;2022-09-21T12:13:55;3.33;;;2.38;;
61590;SDS011;57639;52.410;-1.966;2022-09-21T12:17:26;4.57;;;2.50;;
61590;SDS011;57639;52.410;-1.966;2022-09-21T12:20:52;3.20;;;2.20;;
61590;SDS011;57639;52.410;-1.966;2022-09-21T12:24:11;5.50;;;2.65;;
61590;SDS011;57639;52.410;-1.966;2022-09-21T12:27:24;5.10;;;2.65;;
61590;SDS011;57639;52.410;-1.966;2022-09-21T12:30:36;3.63;;;2.33;;
61590;SDS011;57639;52.410;-1.966;2022-09-21T12:34:04;3.50;;;2.50;;
61590;SDS011;57639;52.410;-1.966;2022-09-21T12:40:30;3.70;;;2.50;;
61590;SDS011;57639;52.410;-1.966;2022-09-21T12:43:48;4.15;;;2.40;;
61590;SDS011;57639;52.410;-1.966;2022-09-21T12:46:59;3.35;;;2.38;;
61590;SDS011;57639;52.410;-1.966;2022-09-21T12:50:24;4.70;;;2.23;;
61590;SDS011;57639;52.410;-1.966;2022-09-21T12:53:43;4.20;;;2.08;;
61590;SDS011;57639;52.410;-1.966;2022-09-21T12:56:55;2.95;;;2.28;;
61590;SDS011;57639;52.410;-1.966;2022-09-21T13:00:45;3.55;;;2.38;;
61590;SDS011;57639;52.410;-1.966;2022-09-21T13:04:32;4.38;;;2.30;;
61590;SDS011;57639;52.410;-1.966;2022-09-21T13:07:59;3.05;;;2.08;;
61590;SDS011;57639;52.410;-1.966;2022-09-21T13:11:18;3.10;;;2.42;;
61590;SDS011;57639;52.410;-1.966;2022-09-21T13:14:30;2.75;;;2.10;;
61590;SDS011;57639;52.410;-1.966;2022-09-21T13:17:55;5.05;;;2.15;;
61590;SDS011;57639;52.410;-1.966;2022-09-21T13:21:15;4.35;;;2.47;;
61590;SDS011;57639;52.410;-1.966;2022-09-21T13:24:46;3.53;;;2.33;;
61590;SDS011;57639;52.410;-1.966;2022-09-21T13:28:17;3.72;;;2.30;;
61590;SDS011;57639;52.410;-1.966;2022-09-21T13:39:21;3.10;;;2.25;;
61590;SDS011;57639;52.410;-1.966;2022-09-21T13:42:54;4.25;;;2.10;;
61590;SDS011;57639;52.410;-1.966;2022-09-21T13:50:27;3.67;;;2.42;;
61590;SDS011;57639;52.410;-1.966;2022-09-21T13:53:38;3.97;;;2.20;;
61590;SDS011;57639;52.410;-1.966;2022-09-21T13:56:59;3.33;;;2.25;;
61590;SDS011;57639;52.410;-1.966;2022-09-21T14:00:39;4.68;;;2.33;;
61590;SDS011;57639;52.410;-1.966;2022-09-21T14:04:01;3.05;;;2.03;;
61590;SDS011;57639;52.410;-1.966;2022-09-21T14:07:44;3.13;;;2.08;;
61590;SDS011;57639;52.410;-1.966;2022-09-21T14:10:52;3.55;;;2.45;;
61590;SDS011;57639;52.410;-1.966;2022-09-21T14:14:03;3.25;;;2.22;;
61590;SDS011;57639;52.410;-1.966;2022-09-21T14:17:41;2.90;;;2.03;;
61590;SDS011;57639;52.410;-1.966;2022-09-21T14:21:12;3.10;;;1.95;;
61590;SDS011;57639;52.410;-1.966;2022-09-21T14:24:21;2.92;;;2.25;;
61590;SDS011;57639;52.410;-1.966;2022-09-21T14:27:42;3.13;;;2.10;;
61590;SDS011;57639;52.410;-1.966;2022-09-21T14:31:07;2.50;;;1.85;;
61590;SDS011;57639;52.410;-1.966;2022-09-21T14:34:43;2.65;;;1.90;;
61590;SDS011;57639;52.410;-1.966;2022-09-21T14:38:23;2.78;;;1.95;;
61590;SDS011;57639;52.410;-1.966;2022-09-21T14:41:36;2.55;;;2.03;;
61590;SDS011;57639;52.410;-1.966;2022-09-21T14:44:44;3.33;;;2.10;;
61590;SDS011;57639;52.410;-1.966;2022-09-21T14:48:01;3.30;;;2.38;;
61590;SDS011;57639;52.410;-1.966;2022-09-21T14:51:38;2.55;;;1.90;;
61590;SDS011;57639;52.410;-1.966;2022-09-21T14:55:08;2.85;;;2.33;;
61590;SDS011;57639;52.410;-1.966;2022-09-21T14:58:43;2.92;;;2.17;;
61590;SDS011;57639;52.410;-1.966;2022-09-21T15:02:23;3.17;;;1.92;;
61590;SDS011;57639;52.410;-1.966;2022-09-21T15:05:35;3.17;;;2.05;;
61590;SDS011;57639;52.410;-1.966;2022-09-21T15:12:55;3.05;;;2.20;;
61590;SDS011;57639;52.410;-1.966;2022-09-21T15:16:29;3.28;;;2.15;;
61590;SDS011;57639;52.410;-1.966;2022-09-21T15:19:46;3.33;;;2.13;;
61590;SDS011;57639;52.410;-1.966;2022-09-21T15:22:54;3.20;;;2.25;;
61590;SDS011;57639;52.410;-1.966;2022-09-21T15:26:05;2.70;;;1.90;;
61590;SDS011;57639;52.410;-1.966;2022-09-21T15:29:24;2.47;;;1.70;;
61590;SDS011;57639;52.410;-1.966;2022-09-21T15:32:57;4.13;;;2.08;;
61590;SDS011;57639;52.410;-1.966;2022-09-21T15:36:06;3.92;;;2.03;;
61590;SDS011;57639;52.410;-1.966;2022-09-21T15:39:35;2.60;;;1.85;;
61590;SDS011;57639;52.410;-1.966;2022-09-21T15:43:04;3.13;;;2.00;;
61590;SDS011;57639;52.410;-1.966;2022-09-21T15:46:35;3.30;;;2.00;;
61590;SDS011;57639;52.410;-1.966;2022-09-21T15:49:44;3.72;;;2.30;;
61590;SDS011;57639;52.410;-1.966;2022-09-21T15:52:50;3.78;;;2.00;;
61590;SDS011;57639;52.410;-1.966;2022-09-21T15:56:18;3.38;;;2.10;;
61590;SDS011;57639;52.410;-1.966;2022-09-21T15:59:32;2.70;;;1.90;;
61590;SDS011;57639;52.410;-1.966;2022-09-21T16:02:42;2.50;;;1.85;;
61590;SDS011;57639;52.410;-1.966;2022-09-21T16:13:09;3.30;;;2.00;;
61590;SDS011;57639;52.410;-1.966;2022-09-21T16:17:21;2.55;;;1.55;;
61590;SDS011;57639;52.410;-1.966;2022-09-21T16:20:51;2.72;;;2.08;;
61590;SDS011;57639;52.410;-1.966;2022-09-21T16:24:26;2.92;;;1.80;;
61590;SDS011;57639;52.410;-1.966;2022-09-21T16:27:37;3.42;;;1.83;;
61590;SDS011;57639;52.410;-1.966;2022-09-21T16:38:41;4.40;;;1.83;;
61590;SDS011;57639;52.410;-1.966;2022-09-21T16:42:20;3.83;;;2.03;;
61590;SDS011;57639;52.410;-1.966;2022-09-21T16:45:34;7.88;;;2.10;;
61590;SDS011;57639;52.410;-1.966;2022-09-21T16:48:47;4.85;;;1.90;;
61590;SDS011;57639;52.410;-1.966;2022-09-21T16:52:10;4.50;;;1.77;;
61590;SDS011;57639;52.410;-1.966;2022-09-21T16:59:18;3.95;;;2.13;;
61590;SDS011;57639;52.410;-1.966;2022-09-21T17:02:44;2.70;;;1.95;;
61590;SDS011;57639;52.410;-1.966;2022-09-21T17:05:51;4.63;;;1.83;;
61590;SDS011;57639;52.410;-1.966;2022-09-21T17:09:20;5.13;;;1.98;;
61590;SDS011;57639;52.410;-1.966;2022-09-21T17:12:58;4.57;;;1.90;;
61590;SDS011;57639;52.410;-1.966;2022-09-21T17:16:20;3.43;;;1.80;;
61590;SDS011;57639;52.410;-1.966;2022-09-21T17:19:46;3.10;;;1.90;;
61590;SDS011;57639;52.410;-1.966;2022-09-21T17:23:14;2.97;;;1.73;;
61590;SDS011;57639;52.410;-1.966;2022-09-21T17:26:30;3.75;;;1.85;;
61590;SDS011;57639;52.410;-1.966;2022-09-21T17:29:56;2.60;;;1.73;;
61590;SDS011;57639;52.410;-1.966;2022-09-21T17:33:19;4.70;;;1.95;;
61590;SDS011;57639;52.410;-1.966;2022-09-21T17:36:30;4.45;;;1.70;;
61590;SDS011;57639;52.410;-1.966;2022-09-21T17:39:37;2.30;;;1.85;;
61590;SDS011;57639;52.410;-1.966;2022-09-21T17:42:48;3.30;;;1.90;;
61590;SDS011;57639;52.410;-1.966;2022-09-21T17:45:55;3.30;;;1.90;;
61590;SDS011;57639;52.410;-1.966;2022-09-21T17:49:11;5.13;;;1.83;;
61590;SDS011;57639;52.410;-1.966;2022-09-21T17:52:17;4.70;;;1.90;;
61590;SDS011;57639;52.410;-1.966;2022-09-21T17:55:43;4.75;;;1.90;;
61590;SDS011;57639;52.410;-1.966;2022-09-21T17:58:55;3.30;;;1.80;;
61590;SDS011;57639;52.410;-1.966;2022-09-21T18:02:11;4.47;;;1.70;;
61590;SDS011;57639;52.410;-1.966;2022-09-21T18:05:28;5.95;;;2.00;;
61590;SDS011;57639;52.410;-1.966;2022-09-21T18:08:37;3.22;;;2.08;;
61590;SDS011;57639;52.410;-1.966;2022-09-21T18:11:48;2.95;;;1.90;;
61590;SDS011;57639;52.410;-1.966;2022-09-21T18:15:07;4.47;;;1.95;;
61590;SDS011;57639;52.410;-1.966;2022-09-21T18:18:29;3.20;;;1.67;;
61590;SDS011;57639;52.410;-1.966;2022-09-21T18:21:48;2.85;;;1.80;;
61590;SDS011;57639;52.410;-1.966;2022-09-21T18:25:02;4.15;;;2.22;;
61590;SDS011;57639;52.410;-1.966;2022-09-21T18:28:21;4.65;;;1.92;;
61590;SDS011;57639;52.410;-1.966;2022-09-21T18:31:34;3.85;;;2.10;;
61590;SDS011;57639;52.410;-1.966;2022-09-21T18:34:53;3.95;;;2.38;;
61590;SDS011;57639;52.410;-1.966;2022-09-21T18:38:18;4.57;;;1.63;;
61590;SDS011;57639;52.410;-1.966;2022-09-21T18:41:35;3.22;;;1.73;;
61590;SDS011;57639;52.410;-1.966;2022-09-21T18:44:48;3.35;;;1.92;;
61590;SDS011;57639;52.410;-1.966;2022-09-21T18:48:10;118.88;;;102.00;;
61590;SDS011;57639;52.410;-1.966;2022-09-21T18:51:27;211.00;;;185.10;;
61590;SDS011;57639;52.410;-1.966;2022-09-21T18:54:44;186.20;;;157.60;;
61590;SDS011;57639;52.410;-1.966;2022-09-21T18:57:51;168.80;;;141.27;;
61590;SDS011;57639;52.410;-1.966;2022-09-21T19:01:01;152.20;;;127.68;;
61590;SDS011;57639;52.410;-1.966;2022-09-21T19:04:07;135.45;;;116.10;;
61590;SDS011;57639;52.410;-1.966;2022-09-21T19:07:19;126.78;;;110.22;;
61590;SDS011;57639;52.410;-1.966;2022-09-21T19:10:33;124.32;;;106.25;;
61590;SDS011;57639;52.410;-1.966;2022-09-21T19:13:45;119.22;;;106.22;;
61590;SDS011;57639;52.410;-1.966;2022-09-21T19:17:02;122.82;;;107.35;;
61590;SDS011;57639;52.410;-1.966;2022-09-21T19:20:25;117.78;;;104.65;;
61590;SDS011;57639;52.410;-1.966;2022-09-21T19:23:54;115.87;;;101.67;;
61590;SDS011;57639;52.410;-1.966;2022-09-21T19:27:20;105.97;;;93.95;;
61590;SDS011;57639;52.410;-1.966;2022-09-21T19:30:30;103.85;;;92.13;;
61590;SDS011;57639;52.410;-1.966;2022-09-21T19:33:38;103.97;;;92.68;;
61590;SDS011;57639;52.410;-1.966;2022-09-21T19:36:51;102.00;;;90.43;;
61590;SDS011;57639;52.410;-1.966;2022-09-21T19:40:00;106.85;;;92.07;;
61590;SDS011;57639;52.410;-1.966;2022-09-21T19:43:23;100.47;;;89.40;;
61590;SDS011;57639;52.410;-1.966;2022-09-21T19:46:39;98.13;;;87.47;;
61590;SDS011;57639;52.410;-1.966;2022-09-21T19:49:51;96.28;;;85.50;;
61590;SDS011;57639;52.410;-1.966;2022-09-21T19:53:00;94.80;;;82.97;;
61590;SDS011;57639;52.410;-1.966;2022-09-21T19:56:18;94.05;;;83.80;;
61590;SDS011;57639;52.410;-1.966;2022-09-21T19:59:44;95.80;;;83.57;;
61590;SDS011;57639;52.410;-1.966;2022-09-21T20:02:57;88.40;;;78.80;;
61590;SDS011;57639;52.410;-1.966;2022-09-21T20:09:20;86.00;;;76.65;;
61590;SDS011;57639;52.410;-1.966;2022-09-21T20:12:36;87.57;;;77.95;;
61590;SDS011;57639;52.410;-1.966;2022-09-21T20:15:52;84.30;;;75.25;;
61590;SDS011;57639;52.410;-1.966;2022-09-21T20:19:09;79.88;;;71.10;;
61590;SDS011;57639;52.410;-1.966;2022-09-21T20:22:27;81.03;;;72.25;;